Time;durP1;ratioP1;P1;durP2;ratioP2;P2;SDS_P1;SDS_P2;PMS_P1;PMS_P2;Temp;Humidity;BMP_temperature;BMP_pressure;BME280_temperature;BME280_humidity;BME280_pressure;Samples;Min_cycle;Max_cycle;Signal;HPM_P1;HPM_P2
2022/09/17 00:01:04;;;;;;;5.15;2.00;;;10.50;99.90;;;;;;5133759;27;20713;-53
2022/09/17 00:03:30;;;;;;;6.53;1.55;;;10.50;99.90;;;;;;5133602;27;20543;-54
2022/09/17 00:06:07;;;;;;;8.48;2.17;;;10.50;99.90;;;;;;5134157;27;20295;-54
2022/09/17 00:08:35;;;;;;;7.85;1.88;;;10.60;99.90;;;;;;5133583;27;20159;-54
2022/09/17 00:11:14;;;;;;;8.32;2.10;;;10.60;99.90;;;;;;5133687;27;20168;-54
2022/09/17 00:13:41;;;;;;;10.35;2.25;;;10.60;99.90;;;;;;5133680;27;20168;-54
2022/09/17 00:16:07;;;;;;;5.03;1.50;;;10.60;99.90;;;;;;5133712;27;20175;-54
2022/09/17 00:18:35;;;;;;;7.55;1.52;;;10.70;99.90;;;;;;5133661;27;20639;-54
2022/09/17 00:21:02;;;;;;;5.65;1.38;;;11.00;99.90;;;;;;5133685;27;20177;-54
2022/09/17 00:23:28;;;;;;;6.90;2.00;;;10.60;99.90;;;;;;5133324;27;20632;-54
2022/09/17 00:25:53;;;;;;;6.03;1.80;;;10.50;99.90;;;;;;5133824;27;20200;-54
2022/09/17 00:28:19;;;;;;;7.32;2.13;;;10.50;99.90;;;;;;5133593;27;20169;-54
2022/09/17 00:30:45;;;;;;;6.40;2.20;;;10.50;99.90;;;;;;5133186;27;20620;-54
2022/09/17 00:33:16;;;;;;;8.43;1.77;;;10.50;99.90;;;;;;5133167;27;20613;-54
2022/09/17 00:35:42;;;;;;;4.97;1.85;;;10.50;99.90;;;;;;5133225;27;20176;-54
2022/09/17 00:38:08;;;;;;;7.70;2.30;;;10.60;99.90;;;;;;5133110;27;20239;-54
2022/09/17 00:40:33;;;;;;;7.25;2.05;;;10.50;99.90;;;;;;5133159;27;20200;-54
2022/09/17 00:42:59;;;;;;;5.53;1.80;;;10.50;99.90;;;;;;5131695;27;20167;-54
2022/09/17 00:45:26;;;;;;;9.02;2.20;;;10.50;99.90;;;;;;5132798;27;20191;-53
2022/09/17 00:48:00;;;;;;;6.00;2.20;;;10.50;99.90;;;;;;5132905;27;20172;-54
2022/09/17 00:50:39;;;;;;;5.50;1.88;;;10.50;99.90;;;;;;5133253;27;20243;-53
2022/09/17 00:53:09;;;;;;;5.13;1.88;;;10.50;99.90;;;;;;5132751;27;20164;-53
2022/09/17 00:55:45;;;;;;;7.47;1.85;;;10.50;99.90;;;;;;5132785;27;20168;-54
2022/09/17 00:58:13;;;;;;;6.88;2.40;;;10.50;99.90;;;;;;5132747;27;20168;-54
2022/09/17 01:00:39;;;;;;;4.50;2.03;;;10.50;99.90;;;;;;5132816;27;20647;-54
2022/09/17 01:03:05;;;;;;;5.07;2.08;;;10.50;99.90;;;;;;5132843;27;20168;-54
2022/09/17 01:05:47;;;;;;;3.92;2.15;;;10.50;99.90;;;;;;5132684;27;20206;-53
2022/09/17 01:09:07;;;;;;;7.35;2.15;;;10.50;99.90;;;;;;5132165;27;20228;-54
2022/09/17 01:11:51;;;;;;;13.55;2.65;;;10.40;99.90;;;;;;5069503;28;20197;-54
2022/09/17 01:14:56;;;;;;;6.93;1.75;;;10.50;99.90;;;;;;5069531;28;20170;-54
2022/09/17 01:17:33;;;;;;;6.10;2.10;;;10.40;99.90;;;;;;5130664;27;20629;-54
2022/09/17 01:20:29;;;;;;;6.70;2.17;;;10.50;99.90;;;;;;5132611;28;20168;-54
2022/09/17 01:23:45;;;;;;;10.10;2.20;;;10.50;99.90;;;;;;5132971;28;20217;-54
2022/09/17 01:26:38;;;;;;;5.00;1.77;;;10.40;99.90;;;;;;5069213;28;20217;-54
2022/09/17 01:29:27;;;;;;;8.50;1.90;;;10.40;99.90;;;;;;5129367;28;20179;-54
2022/09/17 01:32:03;;;;;;;6.82;1.88;;;10.40;99.90;;;;;;5132803;28;20252;-53
2022/09/17 01:34:48;;;;;;;5.20;1.70;;;10.40;99.90;;;;;;5132388;28;20605;-53
2022/09/17 01:37:16;;;;;;;5.80;1.83;;;10.40;99.90;;;;;;5132625;28;20494;-54
2022/09/17 01:39:44;;;;;;;5.18;1.83;;;10.40;99.90;;;;;;5132609;28;20179;-53
2022/09/17 01:42:13;;;;;;;6.50;1.95;;;10.50;99.90;;;;;;5132335;28;20164;-53
2022/09/17 01:45:08;;;;;;;9.30;2.17;;;10.50;99.90;;;;;;5132319;28;20164;-53
2022/09/17 01:47:43;;;;;;;5.55;2.78;;;10.60;99.90;;;;;;5132222;28;20214;-53
2022/09/17 01:50:16;;;;;;;8.65;2.28;;;10.60;99.90;;;;;;5132347;28;20504;-54
2022/09/17 01:52:44;;;;;;;8.07;1.88;;;10.60;99.90;;;;;;5132256;28;20156;-54
2022/09/17 01:55:14;;;;;;;5.85;2.40;;;10.60;99.90;;;;;;5132313;28;20180;-53
2022/09/17 01:57:48;;;;;;;10.25;1.58;;;10.60;99.90;;;;;;5132512;28;20171;-53
2022/09/17 02:00:16;;;;;;;5.28;2.58;;;10.60;99.90;;;;;;5132246;28;20599;-52
2022/09/17 02:02:54;;;;;;;6.07;2.13;;;10.50;99.90;;;;;;5132682;28;20168;-52
2022/09/17 02:05:48;;;;;;;12.90;2.63;;;10.50;99.90;;;;;;5132486;28;20191;-52
2022/09/17 02:08:21;;;;;;;5.65;2.30;;;10.50;99.90;;;;;;5132431;28;20190;-52
2022/09/17 02:11:10;;;;;;;9.10;2.20;;;10.50;99.90;;;;;;5132260;28;20165;-51
2022/09/17 02:13:43;;;;;;;6.95;2.72;;;10.50;99.90;;;;;;5132042;28;20160;-51
2022/09/17 02:16:34;;;;;;;13.75;2.70;;;10.50;99.90;;;;;;5131994;28;20199;-52
2022/09/17 02:19:18;;;;;;;5.00;2.05;;;10.60;99.90;;;;;;5131521;28;20588;-53
2022/09/17 02:21:55;;;;;;;16.23;3.28;;;10.60;99.90;;;;;;5134253;27;20225;-54
2022/09/17 02:24:30;;;;;;;8.25;2.30;;;10.60;99.90;;;;;;5135975;27;20577;-54
2022/09/17 02:26:55;;;;;;;7.60;2.50;;;10.70;99.90;;;;;;5136023;27;20206;-53
2022/09/17 02:29:32;;;;;;;14.00;3.38;;;10.70;99.90;;;;;;5135516;27;20211;-53
2022/09/17 02:31:57;;;;;;;8.45;2.08;;;10.70;99.90;;;;;;5134126;27;20198;-54
2022/09/17 02:34:25;;;;;;;11.45;3.03;;;10.70;99.90;;;;;;5135738;27;20576;-54
2022/09/17 02:36:51;;;;;;;10.38;2.85;;;10.70;99.90;;;;;;5135279;27;20176;-54
2022/09/17 02:39:17;;;;;;;12.50;2.70;;;10.70;99.90;;;;;;5135278;27;20221;-54
2022/09/17 02:42:04;;;;;;;9.60;2.55;;;10.70;99.90;;;;;;5135278;27;20193;-53
2022/09/17 02:44:37;;;;;;;7.97;2.45;;;10.70;99.90;;;;;;5135221;27;20171;-54
2022/09/17 02:47:03;;;;;;;10.10;2.92;;;10.70;99.90;;;;;;5135199;27;20249;-52
2022/09/17 02:49:59;;;;;;;3.63;1.90;;;10.80;99.90;;;;;;5135081;27;20160;-52
2022/09/17 02:52:53;;;;;;;5.82;2.28;;;10.80;99.90;;;;;;5135720;27;20215;-52
2022/09/17 02:55:28;;;;;;;12.68;2.55;;;10.80;99.90;;;;;;5135187;27;20244;-52
2022/09/17 02:58:21;;;;;;;10.43;2.70;;;10.80;99.90;;;;;;5135268;27;20164;-52
2022/09/17 03:00:48;;;;;;;8.13;2.42;;;10.80;99.90;;;;;;5134867;27;20171;-52
2022/09/17 03:03:20;;;;;;;8.73;2.95;;;10.80;99.90;;;;;;5135075;27;20172;-52
2022/09/17 03:05:47;;;;;;;7.20;1.90;;;10.80;99.90;;;;;;5134694;27;20257;-52
2022/09/17 03:08:15;;;;;;;11.77;2.63;;;10.80;99.90;;;;;;5134756;27;20251;-52
2022/09/17 03:10:40;;;;;;;6.95;2.10;;;10.90;99.90;;;;;;5134671;27;20175;-53
2022/09/17 03:13:06;;;;;;;14.13;2.78;;;10.90;99.90;;;;;;5134709;27;20176;-52
2022/09/17 03:15:31;;;;;;;11.23;2.40;;;10.90;99.90;;;;;;5134664;27;20167;-52
2022/09/17 03:17:57;;;;;;;10.25;2.50;;;10.90;99.90;;;;;;5134756;27;20199;-52
2022/09/17 03:20:22;;;;;;;8.35;2.15;;;10.80;99.90;;;;;;5134929;27;20171;-52
2022/09/17 03:22:50;;;;;;;9.80;3.38;;;10.80;99.90;;;;;;5134569;27;20164;-52
2022/09/17 03:25:15;;;;;;;14.20;2.88;;;10.80;99.90;;;;;;5134408;27;20238;-52
2022/09/17 03:27:41;;;;;;;9.30;1.90;;;10.80;99.90;;;;;;5134658;27;20207;-52
2022/09/17 03:30:06;;;;;;;6.07;1.77;;;10.80;99.90;;;;;;5134413;27;20156;-52
2022/09/17 03:32:32;;;;;;;17.77;3.00;;;10.90;99.90;;;;;;5133910;27;20168;-52
2022/09/17 03:34:58;;;;;;;8.93;2.03;;;10.90;99.90;;;;;;5134395;27;20168;-53
2022/09/17 03:37:23;;;;;;;10.63;1.98;;;10.90;99.90;;;;;;5134624;27;20247;-53
2022/09/17 03:39:49;;;;;;;8.45;2.20;;;10.90;99.90;;;;;;5134170;27;20244;-53
2022/09/17 03:42:15;;;;;;;9.13;1.75;;;10.80;99.90;;;;;;5134038;27;20164;-54
2022/09/17 03:44:40;;;;;;;13.02;2.38;;;10.90;99.90;;;;;;5134084;27;20632;-53
2022/09/17 03:47:06;;;;;;;10.70;2.45;;;10.90;99.90;;;;;;5132057;27;20207;-53
2022/09/17 03:49:31;;;;;;;7.20;2.05;;;10.90;99.90;;;;;;5133991;27;20167;-53
2022/09/17 03:51:57;;;;;;;7.85;2.03;;;10.90;99.90;;;;;;5133933;27;20637;-53
2022/09/17 03:54:23;;;;;;;5.88;1.95;;;10.80;99.90;;;;;;5132835;27;20244;-53
2022/09/17 03:56:48;;;;;;;9.90;2.25;;;10.80;99.90;;;;;;5134083;27;20164;-53
2022/09/17 03:59:14;;;;;;;7.55;2.30;;;10.70;99.90;;;;;;5133790;27;20209;-53
2022/09/17 04:01:40;;;;;;;6.80;2.30;;;10.70;99.90;;;;;;5133758;27;20262;-53
2022/09/17 04:04:05;;;;;;;10.00;1.83;;;10.70;99.90;;;;;;5133704;27;20187;-53
2022/09/17 04:06:31;;;;;;;13.10;2.35;;;10.60;99.90;;;;;;5133677;27;20223;-53
2022/09/17 04:08:56;;;;;;;10.52;2.22;;;10.60;99.90;;;;;;5133601;27;20239;-53
2022/09/17 04:11:22;;;;;;;9.95;3.08;;;10.60;99.90;;;;;;5134035;27;20632;-53
2022/09/17 04:13:48;;;;;;;9.50;2.25;;;10.60;99.90;;;;;;5133895;27;20636;-53
2022/09/17 04:16:13;;;;;;;4.35;1.75;;;10.50;99.90;;;;;;5133381;27;20160;-53
2022/09/17 04:18:39;;;;;;;11.27;2.10;;;10.50;99.90;;;;;;5133286;27;20293;-53
2022/09/17 04:21:05;;;;;;;17.38;2.13;;;10.50;99.90;;;;;;5133535;27;20168;-53
2022/09/17 04:23:31;;;;;;;6.03;2.10;;;10.50;99.90;;;;;;5133362;27;20545;-53
2022/09/17 04:25:56;;;;;;;8.68;2.55;;;10.50;99.90;;;;;;5133205;27;20215;-53
2022/09/17 04:28:22;;;;;;;6.63;2.15;;;10.50;99.90;;;;;;5133547;27;20163;-53
2022/09/17 04:30:48;;;;;;;10.80;2.75;;;10.50;99.90;;;;;;5133287;27;20538;-53
2022/09/17 04:33:14;;;;;;;11.63;2.85;;;10.50;99.90;;;;;;5133106;27;20243;-53
2022/09/17 04:35:40;;;;;;;6.32;1.77;;;10.50;99.90;;;;;;5133116;27;20178;-53
2022/09/17 04:38:05;;;;;;;10.82;2.30;;;10.50;99.90;;;;;;5133094;27;20171;-53
2022/09/17 04:40:31;;;;;;;6.28;2.08;;;10.50;99.90;;;;;;5133060;27;20175;-53
2022/09/17 04:42:58;;;;;;;8.23;1.85;;;10.50;99.90;;;;;;5132469;27;20259;-53
2022/09/17 04:45:25;;;;;;;8.65;1.75;;;10.50;99.90;;;;;;5133071;27;20614;-53
2022/09/17 04:47:51;;;;;;;8.98;2.35;;;10.50;99.90;;;;;;5132922;27;20198;-53
2022/09/17 04:50:18;;;;;;;12.15;2.42;;;10.50;99.90;;;;;;5132914;27;20196;-53
2022/09/17 04:52:44;;;;;;;9.88;2.72;;;10.40;99.90;;;;;;5133063;27;20164;-53
2022/09/17 04:55:10;;;;;;;10.32;2.20;;;10.50;99.90;;;;;;5132540;27;20225;-53
2022/09/17 04:57:36;;;;;;;7.78;2.28;;;10.50;99.90;;;;;;5133105;27;20172;-53
2022/09/17 05:00:05;;;;;;;7.78;2.78;;;10.50;99.90;;;;;;5132830;27;20175;-53
2022/09/17 05:02:31;;;;;;;7.10;2.00;;;10.50;99.90;;;;;;5132791;27;20168;-53
2022/09/17 05:04:57;;;;;;;7.18;2.05;;;10.50;99.90;;;;;;5132683;27;20168;-53
2022/09/17 05:07:22;;;;;;;8.80;2.17;;;10.50;99.90;;;;;;5132541;27;20224;-53
2022/09/17 05:09:48;;;;;;;9.77;2.05;;;10.50;99.90;;;;;;5133132;27;20179;-53
2022/09/17 05:12:13;;;;;;;8.90;2.05;;;10.50;99.90;;;;;;5131366;28;20168;-53
2022/09/17 05:14:39;;;;;;;7.43;1.95;;;10.60;99.90;;;;;;5132304;28;20171;-52
2022/09/17 05:17:04;;;;;;;5.13;1.88;;;10.50;99.90;;;;;;5132385;28;20218;-53
2022/09/17 05:19:30;;;;;;;7.43;2.00;;;10.50;99.90;;;;;;5132513;28;20538;-52
2022/09/17 05:21:55;;;;;;;12.00;2.47;;;10.40;99.90;;;;;;5132607;28;20751;-53
2022/09/17 05:24:21;;;;;;;9.88;2.40;;;10.40;99.90;;;;;;5132906;28;20260;-53
2022/09/17 05:26:47;;;;;;;8.02;2.60;;;10.40;99.90;;;;;;5132250;28;20248;-53
2022/09/17 05:29:12;;;;;;;5.97;1.60;;;10.40;99.90;;;;;;5132350;28;20172;-53
2022/09/17 05:31:38;;;;;;;10.07;2.13;;;10.40;99.90;;;;;;5132365;28;20168;-53
2022/09/17 05:34:04;;;;;;;8.18;2.22;;;10.50;99.90;;;;;;5132365;28;20246;-52
2022/09/17 05:36:29;;;;;;;8.00;2.05;;;10.50;99.90;;;;;;5132615;28;20203;-52
2022/09/17 05:38:55;;;;;;;10.13;2.08;;;10.60;99.90;;;;;;5131357;28;20217;-52
2022/09/17 05:41:20;;;;;;;4.60;1.65;;;10.60;99.90;;;;;;5132390;28;20171;-53
2022/09/17 05:43:46;;;;;;;7.28;1.75;;;10.70;99.90;;;;;;5132530;28;20262;-52
2022/09/17 05:46:11;;;;;;;7.43;1.90;;;10.70;99.90;;;;;;5131679;28;20503;-52
2022/09/17 05:48:37;;;;;;;12.18;2.03;;;10.80;99.90;;;;;;5132236;28;20521;-52
2022/09/17 05:51:03;;;;;;;6.28;1.75;;;10.90;99.90;;;;;;5132212;28;20254;-52
2022/09/17 05:53:28;;;;;;;8.60;2.28;;;10.90;99.90;;;;;;5132209;28;20204;-53
2022/09/17 05:55:58;;;;;;;15.32;3.35;;;11.00;99.90;;;;;;5135386;27;20175;-52
2022/09/17 05:58:24;;;;;;;7.90;1.83;;;11.10;99.90;;;;;;5136659;27;20164;-52
2022/09/17 06:00:50;;;;;;;2.00;1.40;;;11.20;99.90;;;;;;5136041;27;20164;-52
2022/09/17 06:03:17;;;;;;;7.32;1.80;;;11.30;99.90;;;;;;5136047;27;20174;-52
2022/09/17 06:05:51;;;;;;;9.57;1.90;;;11.30;99.90;;;;;;5135814;27;20184;-52
2022/09/17 06:08:16;;;;;;;6.47;1.92;;;11.40;99.90;;;;;;5135933;27;20167;-52
2022/09/17 06:10:42;;;;;;;6.28;1.80;;;11.40;99.90;;;;;;5134531;27;20515;-52
2022/09/17 06:13:07;;;;;;;5.50;1.70;;;11.50;99.90;;;;;;5135733;27;20164;-52
2022/09/17 06:15:33;;;;;;;10.35;2.28;;;11.40;99.90;;;;;;5135851;27;20172;-52
2022/09/17 06:17:58;;;;;;;8.65;1.80;;;11.50;99.90;;;;;;5135728;27;20209;-52
2022/09/17 06:20:24;;;;;;;4.78;1.75;;;11.50;99.90;;;;;;5136193;27;20172;-52
2022/09/17 06:22:56;;;;;;;7.82;1.67;;;15.00;99.90;;;;;;5135413;27;20155;-53
2022/09/17 06:25:22;;;;;;;5.15;2.13;;;11.50;99.90;;;;;;5135464;27;20183;-52
2022/09/17 06:27:48;;;;;;;11.82;2.38;;;11.50;99.90;;;;;;5135402;27;20179;-53
2022/09/17 06:30:14;;;;;;;8.65;1.88;;;11.50;99.90;;;;;;5134600;27;20531;-52
2022/09/17 06:32:39;;;;;;;4.00;1.55;;;11.40;99.90;;;;;;5135406;27;20624;-52
2022/09/17 06:35:05;;;;;;;7.53;1.50;;;11.40;99.90;;;;;;5135502;27;20170;-53
2022/09/17 06:37:31;;;;;;;5.60;1.67;;;11.30;99.90;;;;;;5135166;27;20228;-53
2022/09/17 06:39:58;;;;;;;7.07;2.05;;;11.30;99.90;;;;;;5135203;27;20174;-53
2022/09/17 06:42:24;;;;;;;2.60;1.27;;;11.20;99.90;;;;;;5135415;27;20186;-53
2022/09/17 06:44:50;;;;;;;6.72;1.60;;;11.20;99.90;;;;;;5134996;27;20641;-53
2022/09/17 06:47:15;;;;;;;6.80;1.65;;;11.30;99.90;;;;;;5135010;27;20276;-53
2022/09/17 06:49:41;;;;;;;3.60;1.70;;;11.20;99.90;;;;;;5135081;27;20213;-53
2022/09/17 06:52:06;;;;;;;6.22;1.90;;;11.20;99.90;;;;;;5134929;27;20168;-52
2022/09/17 06:54:32;;;;;;;5.53;1.90;;;11.30;99.90;;;;;;5134058;27;20219;-53
2022/09/17 06:56:58;;;;;;;11.98;1.75;;;11.30;99.90;;;;;;5133427;27;20243;-52
2022/09/17 06:59:24;;;;;;;12.68;2.15;;;11.40;99.90;;;;;;5134024;27;20180;-53
2022/09/17 07:01:49;;;;;;;5.75;1.92;;;11.30;99.90;;;;;;5134338;27;20166;-53
2022/09/17 07:04:17;;;;;;;6.03;1.75;;;11.40;99.90;;;;;;5134584;27;20239;-53
2022/09/17 07:06:43;;;;;;;10.55;2.22;;;11.50;99.90;;;;;;5133463;27;20286;-53
2022/09/17 07:09:10;;;;;;;5.78;1.80;;;11.60;99.90;;;;;;5134452;27;20180;-53
2022/09/17 07:11:36;;;;;;;6.53;1.52;;;11.80;99.90;;;;;;5134660;27;20167;-52
2022/09/17 07:14:03;;;;;;;10.60;1.95;;;11.90;99.90;;;;;;5134581;27;20164;-53
2022/09/17 07:16:31;;;;;;;7.13;2.42;;;12.00;99.90;;;;;;5134468;27;20210;-52
2022/09/17 07:18:57;;;;;;;10.05;2.38;;;12.00;99.90;;;;;;5134421;27;20516;-53
2022/09/17 07:21:23;;;;;;;5.72;1.58;;;12.10;99.90;;;;;;5134767;27;20172;-53
2022/09/17 07:23:50;;;;;;;10.02;1.98;;;12.10;99.90;;;;;;5134673;27;20168;-53
2022/09/17 07:26:16;;;;;;;7.38;1.70;;;12.10;99.90;;;;;;5134227;27;20563;-53
2022/09/17 07:28:43;;;;;;;7.93;1.65;;;12.10;99.90;;;;;;5134446;27;20164;-53
2022/09/17 07:31:10;;;;;;;8.52;1.63;;;12.20;99.90;;;;;;5134289;27;20709;-53
2022/09/17 07:33:37;;;;;;;8.98;2.45;;;12.20;99.90;;;;;;5134563;27;20175;-53
2022/09/17 07:36:07;;;;;;;11.63;2.58;;;12.40;99.90;;;;;;5134347;27;20167;-53
2022/09/17 07:38:34;;;;;;;16.27;2.47;;;12.40;99.90;;;;;;5134232;27;20242;-53
2022/09/17 07:41:04;;;;;;;8.05;1.90;;;12.50;99.90;;;;;;5134234;27;20245;-53
2022/09/17 07:43:32;;;;;;;6.47;1.70;;;12.60;99.90;;;;;;5134221;27;20164;-53
2022/09/17 07:45:59;;;;;;;7.20;1.80;;;12.70;99.90;;;;;;5134030;27;20196;-53
2022/09/17 07:48:27;;;;;;;7.78;2.00;;;12.90;99.90;;;;;;5133914;27;20179;-53
2022/09/17 07:50:53;;;;;;;4.38;1.50;;;13.30;99.90;;;;;;5134427;27;20178;-52
2022/09/17 07:53:19;;;;;;;7.05;1.90;;;13.20;99.90;;;;;;5133857;27;20243;-53
2022/09/17 07:55:58;;;;;;;5.80;1.70;;;13.20;99.90;;;;;;5133894;27;20807;-53
2022/09/17 07:58:30;;;;;;;9.45;2.00;;;13.20;99.90;;;;;;5134043;27;20637;-53
2022/09/17 08:01:05;;;;;;;6.40;1.85;;;13.20;99.90;;;;;;5133977;27;20164;-52
2022/09/17 08:03:31;;;;;;;7.05;1.58;;;13.30;99.90;;;;;;5133731;27;20231;-52
2022/09/17 08:06:11;;;;;;;7.47;2.05;;;13.30;99.90;;;;;;5133834;27;20192;-53
2022/09/17 08:08:38;;;;;;;7.30;1.80;;;13.20;99.90;;;;;;5133647;27;20250;-53
2022/09/17 08:11:06;;;;;;;7.03;1.65;;;13.10;99.90;;;;;;5133508;27;20171;-52
2022/09/17 08:13:32;;;;;;;6.78;1.90;;;13.00;99.90;;;;;;5133460;27;20172;-52
2022/09/17 08:15:59;;;;;;;6.15;1.85;;;13.10;99.90;;;;;;5133507;27;20209;-52
2022/09/17 08:18:26;;;;;;;4.10;1.60;;;13.50;99.90;;;;;;5133336;27;20160;-52
2022/09/17 08:20:51;;;;;;;5.90;1.75;;;13.60;99.90;;;;;;5133585;27;20654;-52
2022/09/17 08:23:17;;;;;;;5.10;1.90;;;13.60;99.90;;;;;;5133311;27;20243;-52
2022/09/17 08:25:42;;;;;;;7.85;2.50;;;13.40;99.90;;;;;;5133194;27;20218;-52
2022/09/17 08:28:08;;;;;;;7.45;2.65;;;13.60;99.90;;;;;;5133143;27;20168;-53
2022/09/17 08:30:33;;;;;;;7.65;3.42;;;13.90;99.90;;;;;;5133043;27;20212;-53
2022/09/17 08:32:59;;;;;;;4.22;1.98;;;13.90;99.90;;;;;;5133173;27;20168;-53
2022/09/17 08:35:26;;;;;;;4.70;1.88;;;14.10;99.90;;;;;;5133191;27;20171;-52
2022/09/17 08:37:54;;;;;;;4.75;1.25;;;14.00;99.90;;;;;;5133289;27;20260;-52
2022/09/17 08:40:21;;;;;;;6.95;2.17;;;14.00;99.90;;;;;;5133585;27;20171;-53
2022/09/17 08:43:01;;;;;;;6.00;1.40;;;14.10;99.90;;;;;;5133197;27;20259;-53
2022/09/17 08:45:28;;;;;;;14.55;2.75;;;14.00;99.90;;;;;;5133106;27;20191;-53
2022/09/17 08:48:03;;;;;;;5.30;1.42;;;14.00;99.90;;;;;;5133404;27;20176;-53
2022/09/17 08:50:37;;;;;;;5.68;2.00;;;14.00;99.90;;;;;;5132654;27;20266;-53
2022/09/17 08:53:22;;;;;;;6.18;1.52;;;14.00;99.90;;;;;;5132804;27;20175;-53
2022/09/17 08:56:14;;;;;;;5.32;1.88;;;14.00;99.90;;;;;;5132825;27;20185;-53
2022/09/17 08:59:27;;;;;;;3.45;1.45;;;13.90;99.90;;;;;;5133058;27;20711;-53
2022/09/17 09:02:19;;;;;;;6.30;2.50;;;14.20;99.90;;;;;;5069745;28;20244;-53
2022/09/17 09:05:01;;;;;;;4.13;1.52;;;14.20;99.90;;;;;;5131233;27;20187;-53
2022/09/17 09:07:33;;;;;;;8.63;2.05;;;14.40;99.90;;;;;;5132783;27;20242;-52
2022/09/17 09:10:23;;;;;;;8.68;1.95;;;14.70;99.90;;;;;;5132554;28;20644;-53
2022/09/17 09:12:51;;;;;;;6.22;1.83;;;14.70;99.90;;;;;;5132765;28;20171;-53
2022/09/17 09:15:16;;;;;;;7.07;1.80;;;14.70;99.90;;;;;;5132888;27;20178;-53
2022/09/17 09:17:45;;;;;;;6.70;1.95;;;15.10;99.90;;;;;;5132444;28;20168;-53
2022/09/17 09:20:52;;;;;;;10.80;2.33;;;14.90;99.90;;;;;;5132416;28;20168;-53
2022/09/17 09:23:25;;;;;;;7.43;1.80;;;14.70;99.90;;;;;;5132712;27;20212;-53
2022/09/17 09:26:03;;;;;;;5.18;1.58;;;15.00;99.90;;;;;;5132625;28;20231;-54
2022/09/17 09:29:02;;;;;;;9.57;1.52;;;15.10;99.90;;;;;;5132850;28;20172;-53
2022/09/17 09:31:46;;;;;;;6.47;2.40;;;15.30;99.90;;;;;;5115947;27;20176;-53
2022/09/17 09:34:13;;;;;;;6.18;1.80;;;15.30;99.90;;;;;;5136634;27;20163;-53
2022/09/17 09:36:39;;;;;;;7.75;2.00;;;15.70;99.90;;;;;;5136561;27;20194;-53
2022/09/17 09:39:19;;;;;;;5.57;1.25;;;15.50;99.90;;;;;;5136516;27;20620;-53
2022/09/17 09:42:04;;;;;;;5.47;1.88;;;15.10;99.90;;;;;;5136438;27;20156;-53
2022/09/17 09:44:30;;;;;;;5.80;1.38;;;15.20;99.90;;;;;;5135101;27;20570;-53
2022/09/17 09:47:25;;;;;;;5.70;1.40;;;15.00;99.90;;;;;;5136156;27;20200;-54
2022/09/17 09:50:15;;;;;;;2.88;1.42;;;14.70;99.90;;;;;;5136628;27;20586;-54
2022/09/17 09:52:50;;;;;;;2.80;1.10;;;14.90;99.90;;;;;;5136451;27;20172;-54
2022/09/17 09:55:52;;;;;;;9.98;1.88;;;15.10;99.90;;;;;;5136196;27;20171;-54
2022/09/17 09:58:38;;;;;;;4.55;1.08;;;15.10;99.90;;;;;;5134771;27;20573;-54
2022/09/17 10:01:16;;;;;;;5.93;1.60;;;14.70;99.90;;;;;;5134878;27;20175;-54
2022/09/17 10:03:45;;;;;;;6.00;1.23;;;14.80;99.90;;;;;;5136073;27;20240;-54
2022/09/17 10:06:12;;;;;;;10.18;1.58;;;14.70;99.90;;;;;;5136020;27;20206;-53
2022/09/17 10:08:59;;;;;;;4.40;1.65;;;14.90;99.90;;;;;;5135966;27;20204;-53
2022/09/17 10:11:27;;;;;;;2.90;1.35;;;15.00;99.90;;;;;;5124747;27;20219;-53
2022/09/17 10:14:25;;;;;;;3.95;1.58;;;15.10;99.90;;;;;;5136361;27;20168;-53
2022/09/17 10:17:24;;;;;;;3.30;1.13;;;15.00;99.90;;;;;;5136040;27;20319;-53
2022/09/17 10:20:04;;;;;;;3.67;1.05;;;15.10;99.90;;;;;;5102207;27;20186;-53
2022/09/17 10:22:35;;;;;;;5.85;1.50;;;15.10;99.90;;;;;;5134490;27;20164;-53
2022/09/17 10:25:04;;;;;;;9.70;1.63;;;15.30;99.90;;;;;;5135852;27;20199;-53
2022/09/17 10:27:31;;;;;;;3.75;1.40;;;15.70;99.90;;;;;;5135518;27;20560;-53
2022/09/17 10:30:15;;;;;;;6.63;1.58;;;15.80;99.90;;;;;;5135419;27;20160;-53
2022/09/17 10:32:41;;;;;;;8.73;1.33;;;15.70;99.90;;;;;;5135461;27;20164;-53
2022/09/17 10:35:17;;;;;;;7.88;2.20;;;15.60;99.90;;;;;;5135482;27;20175;-53
2022/09/17 10:37:48;;;;;;;5.97;1.55;;;15.50;99.90;;;;;;5135299;27;20246;-54
2022/09/17 10:40:34;;;;;;;4.65;1.40;;;15.30;99.90;;;;;;5134106;27;21007;-53
2022/09/17 10:43:15;;;;;;;4.78;1.42;;;15.50;99.90;;;;;;5134167;27;20183;-53
2022/09/17 10:45:44;;;;;;;7.00;1.48;;;15.80;99.90;;;;;;5135393;27;20211;-53
2022/09/17 10:48:19;;;;;;;5.15;1.33;;;15.80;99.90;;;;;;5135099;27;20160;-53
2022/09/17 10:50:55;;;;;;;5.50;1.73;;;15.80;99.90;;;;;;5135339;27;20171;-53
2022/09/17 10:53:23;;;;;;;2.92;1.58;;;16.20;99.90;;;;;;5135409;27;20203;-53
2022/09/17 10:55:57;;;;;;;4.45;1.45;;;16.30;99.90;;;;;;5135278;27;20244;-53
2022/09/17 10:58:47;;;;;;;5.18;1.20;;;16.50;99.90;;;;;;5135349;27;20268;-53
2022/09/17 11:01:21;;;;;;;2.33;0.82;;;16.40;99.90;;;;;;5134875;27;20651;-53
2022/09/17 11:04:09;;;;;;;4.40;1.48;;;16.30;99.90;;;;;;5134845;27;20223;-53
2022/09/17 11:07:08;;;;;;;4.82;1.10;;;16.60;99.90;;;;;;5134793;27;20282;-53
2022/09/17 11:10:04;;;;;;;5.50;1.80;;;17.00;99.90;;;;;;5102662;27;20263;-53
2022/09/17 11:13:08;;;;;;;7.80;1.58;;;17.20;99.90;;;;;;5134602;27;20184;-53
2022/09/17 11:15:48;;;;;;;6.93;1.50;;;16.70;99.90;;;;;;5102826;27;20179;-53
2022/09/17 11:18:58;;;;;;;5.68;1.50;;;16.30;99.90;;;;;;5134688;27;20589;-53
2022/09/17 11:21:29;;;;;;;2.25;1.02;;;15.90;99.90;;;;;;5100301;27;20258;-53
2022/09/17 11:24:25;;;;;;;5.15;1.75;;;15.50;99.90;;;;;;5134749;27;20221;-53
2022/09/17 11:27:10;;;;;;;8.13;2.10;;;14.90;99.90;;;;;;5134657;27;20662;-53
2022/09/17 11:29:51;;;;;;;6.47;1.60;;;14.10;99.90;;;;;;5134096;27;20164;-53
2022/09/17 11:32:52;;;;;;;4.53;1.30;;;13.80;99.90;;;;;;5132930;27;20171;-52
2022/09/17 11:35:27;;;;;;;5.32;1.90;;;13.70;99.90;;;;;;5132984;27;20534;-53
2022/09/17 11:38:04;;;;;;;1.35;1.00;;;13.50;99.90;;;;;;5134669;27;20167;-53
2022/09/17 11:40:50;;;;;;;2.28;1.10;;;13.60;99.90;;;;;;5134092;27;20198;-52
2022/09/17 11:43:30;;;;;;;2.08;1.00;;;13.80;99.90;;;;;;5134038;27;20514;-53
2022/09/17 11:46:23;;;;;;;2.42;1.20;;;14.30;99.90;;;;;;5133961;27;20203;-53
2022/09/17 11:48:58;;;;;;;4.00;1.35;;;14.80;99.90;;;;;;5134355;27;20164;-53
2022/09/17 11:51:32;;;;;;;2.25;1.00;;;15.00;99.90;;;;;;5134265;27;20246;-52
2022/09/17 11:54:04;;;;;;;3.50;1.23;;;15.20;99.90;;;;;;5133471;27;20216;-52
2022/09/17 11:56:39;;;;;;;3.45;1.00;;;15.30;99.90;;;;;;5133824;27;20164;-53
2022/09/17 11:59:21;;;;;;;5.53;1.67;;;15.30;99.90;;;;;;5134122;27;20512;-54
2022/09/17 12:02:13;;;;;;;4.45;1.08;;;15.40;99.90;;;;;;5133865;27;20623;-54
2022/09/17 12:04:56;;;;;;;4.10;2.20;;;15.50;99.90;;;;;;5132464;27;20197;-53
2022/09/17 12:07:45;;;;;;;10.65;1.85;;;15.30;99.90;;;;;;5133982;27;20286;-54
2022/09/17 12:10:28;;;;;;;3.00;1.40;;;15.20;99.90;;;;;;5133529;27;20174;-54
2022/09/17 12:13:12;;;;;;;3.40;1.40;;;15.00;99.90;;;;;;5133499;27;20156;-54
2022/09/17 12:15:41;;;;;;;4.72;1.33;;;14.80;99.90;;;;;;5133500;27;20164;-54
2022/09/17 12:18:18;;;;;;;2.85;1.52;;;14.70;99.90;;;;;;5133452;27;20210;-54
2022/09/17 12:20:47;;;;;;;3.95;1.50;;;14.70;99.90;;;;;;5133481;27;20621;-54
2022/09/17 12:23:26;;;;;;;4.05;1.48;;;14.60;99.90;;;;;;5133316;27;20164;-54
2022/09/17 12:25:59;;;;;;;3.83;1.38;;;14.60;99.90;;;;;;5133703;27;20270;-53
2022/09/17 12:28:34;;;;;;;3.50;1.13;;;14.60;99.90;;;;;;5133126;27;20172;-53
2022/09/17 12:31:09;;;;;;;5.55;1.30;;;14.90;99.90;;;;;;5133238;27;20242;-54
2022/09/17 12:33:53;;;;;;;2.22;0.68;;;14.90;99.90;;;;;;5133088;27;20167;-53
2022/09/17 12:36:41;;;;;;;2.28;0.77;;;14.90;99.90;;;;;;5133473;27;20208;-54
2022/09/17 12:39:30;;;;;;;3.97;1.20;;;15.30;99.90;;;;;;5132996;27;20164;-54
2022/09/17 12:42:11;;;;;;;3.50;1.08;;;15.50;99.90;;;;;;5133024;27;20220;-53
2022/09/17 12:45:00;;;;;;;3.33;1.00;;;16.10;99.90;;;;;;5132911;27;20192;-54
2022/09/17 12:47:46;;;;;;;5.40;1.33;;;15.90;99.90;;;;;;5103363;27;20742;-54
2022/09/17 12:50:24;;;;;;;3.28;1.17;;;15.90;99.90;;;;;;5133036;27;20163;-54
2022/09/17 12:53:10;;;;;;;2.13;1.02;;;16.10;99.90;;;;;;5133001;27;20247;-53
2022/09/17 12:55:50;;;;;;;2.92;1.05;;;16.20;99.90;;;;;;5132748;27;20645;-54
2022/09/17 12:58:31;;;;;;;2.60;0.90;;;16.00;99.90;;;;;;5132816;27;20184;-54
2022/09/17 13:01:18;;;;;;;3.40;1.02;;;16.10;99.90;;;;;;5132719;27;20175;-53
2022/09/17 13:03:52;;;;;;;2.05;0.93;;;16.20;99.90;;;;;;5132663;27;20244;-54
2022/09/17 13:06:39;;;;;;;4.20;1.10;;;16.20;99.90;;;;;;5132196;27;20204;-54
2022/09/17 13:09:45;;;;;;;2.53;0.75;;;16.50;99.90;;;;;;5132445;27;20168;-53
2022/09/17 13:12:40;;;;;;;6.70;1.30;;;16.80;99.90;;;;;;5132595;28;20412;-54
2022/09/17 13:15:33;;;;;;;3.70;0.90;;;17.10;99.90;;;;;;5132645;28;20195;-53
2022/09/17 13:18:16;;;;;;;5.15;1.83;;;16.80;99.90;;;;;;5131339;28;20164;-54